Huvudsida
METAR-TAF:

METAR-TAF

Flygplatser :

Recifes internationella flygplats

Recife, Pernambuco, Brasilien

latitud: 08-08S, longitud: 034-55W, höjd: 19 m

Aktuellt väderrapport

Denna rapport gjordes för 54 minuter sedan, klockan 15:00 UTC
Vind 12 kt från syd/sydost
Temperatur 30°C
Fuktighet 62%
Tryck 1017 hPa
Sikt 10 km eller mer
Få moln på en höjd av 2500 ft

METAR: SBRF 161500Z 15012KT 9999 FEW025 30/22 Q1017

Tid: 12:54 (15:54 UTC)

Väderprognos

Denna rapport gjordes för 5 timmar och 54 minuter sedan, klockan 10:00 UTC
Prognos gäller från 16 kl. 12 UTC till 17 kl. 12 UTC
Vind 11 kt från sydost
Sikt: 8000 m
Spridda moln på en höjd av 2200 ft

TAF: SBRF 161000Z 1612/1712 13011KT 8000 SCT022 TX30/1615Z TN26/1708Z RMK PEA

Aktuella väderrapporter och prognoser från 4000 flygplatser (METAR- och TAF-rapporter).

De tillgängliga stationerna syns som gula och röda prickar på kartan.

För musen över prickarna för att se namnen på stationerna.

Klicka sedan för att få väderrapporter och prognoser.

För att ändra kartan: Klicka på de gröna knapparna med ett svart kors på för att zooma in; den gröna knappen med ett streck på för att zooma ut; eller på de gröna pilarna för angränsande kartor.


METAR-TAF: